sensor_id;sensor_type;location;lat;lon;timestamp;temperature;humidity
5055;DHT22;13829;48.990;8.346;2023-06-14T00:01:07;15.60;87.80
5055;DHT22;13829;48.990;8.346;2023-06-14T00:03:34;15.60;87.80
5055;DHT22;13829;48.990;8.346;2023-06-14T00:06:01;15.60;88.00
5055;DHT22;13829;48.990;8.346;2023-06-14T00:08:30;15.70;87.70
5055;DHT22;13829;48.990;8.346;2023-06-14T00:10:57;15.70;87.90
5055;DHT22;13829;48.990;8.346;2023-06-14T00:13:23;15.70;88.30
5055;DHT22;13829;48.990;8.346;2023-06-14T00:15:50;15.60;88.60
5055;DHT22;13829;48.990;8.346;2023-06-14T00:18:20;15.60;87.90
5055;DHT22;13829;48.990;8.346;2023-06-14T00:20:50;15.60;88.70
5055;DHT22;13829;48.990;8.346;2023-06-14T00:23:17;15.60;88.70
5055;DHT22;13829;48.990;8.346;2023-06-14T00:25:46;15.60;87.50
5055;DHT22;13829;48.990;8.346;2023-06-14T00:28:13;15.60;88.10
5055;DHT22;13829;48.990;8.346;2023-06-14T00:30:40;15.60;88.40
5055;DHT22;13829;48.990;8.346;2023-06-14T00:33:09;15.70;87.60
5055;DHT22;13829;48.990;8.346;2023-06-14T00:35:36;15.70;85.80
5055;DHT22;13829;48.990;8.346;2023-06-14T00:38:03;15.80;84.80
5055;DHT22;13829;48.990;8.346;2023-06-14T00:40:30;16.10;81.70
5055;DHT22;13829;48.990;8.346;2023-06-14T00:42:59;16.30;78.80
5055;DHT22;13829;48.990;8.346;2023-06-14T00:45:25;16.50;77.20
5055;DHT22;13829;48.990;8.346;2023-06-14T00:47:53;16.70;75.10
5055;DHT22;13829;48.990;8.346;2023-06-14T00:50:21;16.90;73.80
5055;DHT22;13829;48.990;8.346;2023-06-14T00:52:49;17.10;72.30
5055;DHT22;13829;48.990;8.346;2023-06-14T00:55:16;17.30;71.20
5055;DHT22;13829;48.990;8.346;2023-06-14T00:57:44;17.30;70.60
5055;DHT22;13829;48.990;8.346;2023-06-14T01:00:13;17.40;70.10
5055;DHT22;13829;48.990;8.346;2023-06-14T01:02:41;17.40;70.00
5055;DHT22;13829;48.990;8.346;2023-06-14T01:05:08;17.40;70.20
5055;DHT22;13829;48.990;8.346;2023-06-14T01:07:46;17.40;69.70
5055;DHT22;13829;48.990;8.346;2023-06-14T01:10:32;17.40;69.70
5055;DHT22;13829;48.990;8.346;2023-06-14T01:13:12;17.40;69.50
5055;DHT22;13829;48.990;8.346;2023-06-14T01:15:47;17.40;69.40
5055;DHT22;13829;48.990;8.346;2023-06-14T01:18:17;17.40;69.40
5055;DHT22;13829;48.990;8.346;2023-06-14T01:20:45;17.30;69.50
5055;DHT22;13829;48.990;8.346;2023-06-14T01:23:16;17.30;69.60
5055;DHT22;13829;48.990;8.346;2023-06-14T01:25:43;17.20;70.00
5055;DHT22;13829;48.990;8.346;2023-06-14T01:28:11;17.10;70.10
5055;DHT22;13829;48.990;8.346;2023-06-14T01:30:42;17.10;70.40
5055;DHT22;13829;48.990;8.346;2023-06-14T01:33:12;17.10;70.40
5055;DHT22;13829;48.990;8.346;2023-06-14T01:35:41;17.00;70.30
5055;DHT22;13829;48.990;8.346;2023-06-14T01:38:09;17.00;70.30
5055;DHT22;13829;48.990;8.346;2023-06-14T01:40:38;16.90;70.10
5055;DHT22;13829;48.990;8.346;2023-06-14T01:43:06;17.00;70.30
5055;DHT22;13829;48.990;8.346;2023-06-14T01:45:34;17.00;70.20
5055;DHT22;13829;48.990;8.346;2023-06-14T01:48:03;17.00;70.20
5055;DHT22;13829;48.990;8.346;2023-06-14T01:50:31;17.00;70.40
5055;DHT22;13829;48.990;8.346;2023-06-14T01:52:58;16.90;70.40
5055;DHT22;13829;48.990;8.346;2023-06-14T01:55:26;16.90;70.50
5055;DHT22;13829;48.990;8.346;2023-06-14T01:57:54;16.90;70.50
5055;DHT22;13829;48.990;8.346;2023-06-14T02:00:21;16.90;70.60
5055;DHT22;13829;48.990;8.346;2023-06-14T02:02:48;16.90;70.70
5055;DHT22;13829;48.990;8.346;2023-06-14T02:05:15;16.90;70.70
5055;DHT22;13829;48.990;8.346;2023-06-14T02:07:44;16.80;72.10
5055;DHT22;13829;48.990;8.346;2023-06-14T02:10:11;16.70;72.50
5055;DHT22;13829;48.990;8.346;2023-06-14T02:12:38;16.60;71.80
5055;DHT22;13829;48.990;8.346;2023-06-14T02:15:08;16.60;71.80
5055;DHT22;13829;48.990;8.346;2023-06-14T02:17:42;16.50;73.50
5055;DHT22;13829;48.990;8.346;2023-06-14T02:20:10;16.40;72.80
5055;DHT22;13829;48.990;8.346;2023-06-14T02:22:37;16.30;72.90
5055;DHT22;13829;48.990;8.346;2023-06-14T02:25:05;16.30;73.80
5055;DHT22;13829;48.990;8.346;2023-06-14T02:27:32;16.20;77.00
5055;DHT22;13829;48.990;8.346;2023-06-14T02:30:00;16.10;77.10
5055;DHT22;13829;48.990;8.346;2023-06-14T02:32:28;16.00;76.60
5055;DHT22;13829;48.990;8.346;2023-06-14T02:34:55;16.00;75.10
5055;DHT22;13829;48.990;8.346;2023-06-14T02:37:22;16.10;74.70
5055;DHT22;13829;48.990;8.346;2023-06-14T02:39:49;16.20;74.50
5055;DHT22;13829;48.990;8.346;2023-06-14T02:42:16;16.30;74.50
5055;DHT22;13829;48.990;8.346;2023-06-14T02:44:43;16.30;74.30
5055;DHT22;13829;48.990;8.346;2023-06-14T02:47:10;16.30;73.80
5055;DHT22;13829;48.990;8.346;2023-06-14T02:49:39;16.20;74.20
5055;DHT22;13829;48.990;8.346;2023-06-14T02:52:06;16.30;74.00
5055;DHT22;13829;48.990;8.346;2023-06-14T02:54:34;16.40;73.70
5055;DHT22;13829;48.990;8.346;2023-06-14T02:57:01;16.40;73.80
5055;DHT22;13829;48.990;8.346;2023-06-14T02:59:28;16.50;73.90
5055;DHT22;13829;48.990;8.346;2023-06-14T03:01:55;16.30;74.20
5055;DHT22;13829;48.990;8.346;2023-06-14T03:04:22;16.30;74.50
5055;DHT22;13829;48.990;8.346;2023-06-14T03:06:52;16.40;74.50
5055;DHT22;13829;48.990;8.346;2023-06-14T03:09:19;16.50;74.60
5055;DHT22;13829;48.990;8.346;2023-06-14T03:11:46;16.50;74.70
5055;DHT22;13829;48.990;8.346;2023-06-14T03:14:13;16.50;74.70
5055;DHT22;13829;48.990;8.346;2023-06-14T03:16:40;16.40;74.90
5055;DHT22;13829;48.990;8.346;2023-06-14T03:19:08;16.40;74.80
5055;DHT22;13829;48.990;8.346;2023-06-14T03:21:35;16.40;75.10
5055;DHT22;13829;48.990;8.346;2023-06-14T03:24:03;16.20;75.60
5055;DHT22;13829;48.990;8.346;2023-06-14T03:26:30;16.10;75.90
5055;DHT22;13829;48.990;8.346;2023-06-14T03:28:59;16.20;76.10
5055;DHT22;13829;48.990;8.346;2023-06-14T03:31:28;16.20;75.90
5055;DHT22;13829;48.990;8.346;2023-06-14T03:33:58;16.30;75.80
5055;DHT22;13829;48.990;8.346;2023-06-14T03:36:25;16.40;75.80
5055;DHT22;13829;48.990;8.346;2023-06-14T03:38:53;16.40;76.00
5055;DHT22;13829;48.990;8.346;2023-06-14T03:41:21;16.40;76.00
5055;DHT22;13829;48.990;8.346;2023-06-14T03:43:48;16.30;76.20
5055;DHT22;13829;48.990;8.346;2023-06-14T03:46:15;16.30;76.40
5055;DHT22;13829;48.990;8.346;2023-06-14T03:48:42;16.30;76.50
5055;DHT22;13829;48.990;8.346;2023-06-14T03:51:09;16.30;76.60
5055;DHT22;13829;48.990;8.346;2023-06-14T03:53:36;16.30;76.70
5055;DHT22;13829;48.990;8.346;2023-06-14T03:56:03;16.20;76.60
5055;DHT22;13829;48.990;8.346;2023-06-14T03:58:31;16.30;76.60
5055;DHT22;13829;48.990;8.346;2023-06-14T04:00:58;16.30;76.50
5055;DHT22;13829;48.990;8.346;2023-06-14T04:03:26;16.20;76.40
5055;DHT22;13829;48.990;8.346;2023-06-14T04:05:54;16.30;76.00
5055;DHT22;13829;48.990;8.346;2023-06-14T04:08:25;16.30;76.00
5055;DHT22;13829;48.990;8.346;2023-06-14T04:10:52;16.30;75.90
5055;DHT22;13829;48.990;8.346;2023-06-14T04:13:19;16.30;75.90
5055;DHT22;13829;48.990;8.346;2023-06-14T04:15:47;16.40;75.80
5055;DHT22;13829;48.990;8.346;2023-06-14T04:18:14;16.40;75.50
5055;DHT22;13829;48.990;8.346;2023-06-14T04:20:41;16.50;75.50
5055;DHT22;13829;48.990;8.346;2023-06-14T04:23:12;16.60;75.30
5055;DHT22;13829;48.990;8.346;2023-06-14T04:25:41;16.70;75.20
5055;DHT22;13829;48.990;8.346;2023-06-14T04:28:10;16.70;75.50
5055;DHT22;13829;48.990;8.346;2023-06-14T04:30:37;16.70;75.70
5055;DHT22;13829;48.990;8.346;2023-06-14T04:33:07;16.70;75.80
5055;DHT22;13829;48.990;8.346;2023-06-14T04:35:36;16.70;76.20
5055;DHT22;13829;48.990;8.346;2023-06-14T04:38:04;16.70;76.60
5055;DHT22;13829;48.990;8.346;2023-06-14T04:40:34;16.80;76.50
5055;DHT22;13829;48.990;8.346;2023-06-14T04:43:08;16.80;76.20
5055;DHT22;13829;48.990;8.346;2023-06-14T04:45:38;16.80;76.50
5055;DHT22;13829;48.990;8.346;2023-06-14T04:48:06;16.90;76.60
5055;DHT22;13829;48.990;8.346;2023-06-14T04:50:33;17.00;76.80
5055;DHT22;13829;48.990;8.346;2023-06-14T04:53:00;17.10;76.50
5055;DHT22;13829;48.990;8.346;2023-06-14T04:55:28;17.10;76.50
5055;DHT22;13829;48.990;8.346;2023-06-14T04:57:55;17.20;75.60
5055;DHT22;13829;48.990;8.346;2023-06-14T05:00:22;17.20;75.80
5055;DHT22;13829;48.990;8.346;2023-06-14T05:02:49;17.30;75.90
5055;DHT22;13829;48.990;8.346;2023-06-14T05:05:20;17.30;75.30
5055;DHT22;13829;48.990;8.346;2023-06-14T05:07:46;17.40;75.20
5055;DHT22;13829;48.990;8.346;2023-06-14T05:10:13;17.40;75.00
5055;DHT22;13829;48.990;8.346;2023-06-14T05:12:40;17.40;74.80
5055;DHT22;13829;48.990;8.346;2023-06-14T05:15:09;17.50;74.60
5055;DHT22;13829;48.990;8.346;2023-06-14T05:17:36;17.40;74.80
5055;DHT22;13829;48.990;8.346;2023-06-14T05:20:07;17.50;74.80
5055;DHT22;13829;48.990;8.346;2023-06-14T05:22:36;17.60;74.80
5055;DHT22;13829;48.990;8.346;2023-06-14T05:25:04;17.70;74.20
5055;DHT22;13829;48.990;8.346;2023-06-14T05:27:31;17.60;74.40
5055;DHT22;13829;48.990;8.346;2023-06-14T05:30:01;17.80;74.60
5055;DHT22;13829;48.990;8.346;2023-06-14T05:32:29;17.80;74.10
5055;DHT22;13829;48.990;8.346;2023-06-14T05:34:56;17.90;73.80
5055;DHT22;13829;48.990;8.346;2023-06-14T05:37:23;17.90;73.80
5055;DHT22;13829;48.990;8.346;2023-06-14T05:39:52;18.10;73.20
5055;DHT22;13829;48.990;8.346;2023-06-14T05:42:18;18.20;72.90
5055;DHT22;13829;48.990;8.346;2023-06-14T05:44:45;18.10;72.60
5055;DHT22;13829;48.990;8.346;2023-06-14T05:47:12;18.10;73.00
5055;DHT22;13829;48.990;8.346;2023-06-14T05:49:39;18.20;73.00
5055;DHT22;13829;48.990;8.346;2023-06-14T05:52:07;18.20;72.50
5055;DHT22;13829;48.990;8.346;2023-06-14T05:54:35;18.20;73.10
5055;DHT22;13829;48.990;8.346;2023-06-14T05:57:04;18.30;72.70
5055;DHT22;13829;48.990;8.346;2023-06-14T05:59:31;18.40;72.40
5055;DHT22;13829;48.990;8.346;2023-06-14T06:01:58;18.40;72.30
5055;DHT22;13829;48.990;8.346;2023-06-14T06:04:25;18.40;72.20
5055;DHT22;13829;48.990;8.346;2023-06-14T06:06:52;18.50;72.80
5055;DHT22;13829;48.990;8.346;2023-06-14T06:09:19;18.50;72.40
5055;DHT22;13829;48.990;8.346;2023-06-14T06:11:46;18.70;72.20
5055;DHT22;13829;48.990;8.346;2023-06-14T06:14:14;18.90;72.50
5055;DHT22;13829;48.990;8.346;2023-06-14T06:16:41;19.20;72.00
5055;DHT22;13829;48.990;8.346;2023-06-14T06:19:08;19.80;71.40
5055;DHT22;13829;48.990;8.346;2023-06-14T06:21:35;20.50;69.00
5055;DHT22;13829;48.990;8.346;2023-06-14T06:24:04;20.80;67.90
5055;DHT22;13829;48.990;8.346;2023-06-14T06:26:31;21.50;67.20
5055;DHT22;13829;48.990;8.346;2023-06-14T06:28:58;22.50;65.60
5055;DHT22;13829;48.990;8.346;2023-06-14T06:31:27;23.10;63.30
5055;DHT22;13829;48.990;8.346;2023-06-14T06:33:54;23.40;62.60
5055;DHT22;13829;48.990;8.346;2023-06-14T06:36:20;23.60;61.60
5055;DHT22;13829;48.990;8.346;2023-06-14T06:38:47;24.50;61.20
5055;DHT22;13829;48.990;8.346;2023-06-14T06:41:14;25.40;59.50
5055;DHT22;13829;48.990;8.346;2023-06-14T06:43:41;25.60;58.80
5055;DHT22;13829;48.990;8.346;2023-06-14T06:46:08;25.90;58.40
5055;DHT22;13829;48.990;8.346;2023-06-14T06:48:37;26.40;57.70
5055;DHT22;13829;48.990;8.346;2023-06-14T06:51:04;26.70;57.10
5055;DHT22;13829;48.990;8.346;2023-06-14T06:53:31;26.80;56.30
5055;DHT22;13829;48.990;8.346;2023-06-14T06:55:58;26.50;56.80
5055;DHT22;13829;48.990;8.346;2023-06-14T06:58:25;26.40;56.80
5055;DHT22;13829;48.990;8.346;2023-06-14T07:00:52;26.40;56.70
5055;DHT22;13829;48.990;8.346;2023-06-14T07:03:19;27.00;56.70
5055;DHT22;13829;48.990;8.346;2023-06-14T07:05:47;27.70;55.90
5055;DHT22;13829;48.990;8.346;2023-06-14T07:08:14;28.20;53.90
5055;DHT22;13829;48.990;8.346;2023-06-14T07:10:41;27.90;53.80
5055;DHT22;13829;48.990;8.346;2023-06-14T07:13:08;28.40;54.20
5055;DHT22;13829;48.990;8.346;2023-06-14T07:15:35;29.30;53.80
5055;DHT22;13829;48.990;8.346;2023-06-14T07:18:02;29.10;52.50
5055;DHT22;13829;48.990;8.346;2023-06-14T07:20:29;29.20;52.60
5055;DHT22;13829;48.990;8.346;2023-06-14T07:22:58;28.80;52.60
5055;DHT22;13829;48.990;8.346;2023-06-14T07:25:25;29.00;53.50
5055;DHT22;13829;48.990;8.346;2023-06-14T07:27:51;30.10;51.90
5055;DHT22;13829;48.990;8.346;2023-06-14T07:30:18;30.50;50.60
5055;DHT22;13829;48.990;8.346;2023-06-14T07:32:46;30.50;50.50
5055;DHT22;13829;48.990;8.346;2023-06-14T07:35:12;29.80;52.30
5055;DHT22;13829;48.990;8.346;2023-06-14T07:37:39;28.90;54.10
5055;DHT22;13829;48.990;8.346;2023-06-14T07:40:09;27.90;53.90
5055;DHT22;13829;48.990;8.346;2023-06-14T07:42:36;27.30;55.20
5055;DHT22;13829;48.990;8.346;2023-06-14T07:45:04;27.40;55.00
5055;DHT22;13829;48.990;8.346;2023-06-14T07:47:32;27.10;55.20
5055;DHT22;13829;48.990;8.346;2023-06-14T07:49:59;27.60;54.30
5055;DHT22;13829;48.990;8.346;2023-06-14T07:52:26;27.70;54.10
5055;DHT22;13829;48.990;8.346;2023-06-14T07:54:53;27.90;54.60
5055;DHT22;13829;48.990;8.346;2023-06-14T07:57:22;28.20;54.70
5055;DHT22;13829;48.990;8.346;2023-06-14T07:59:49;29.30;52.80
5055;DHT22;13829;48.990;8.346;2023-06-14T08:02:16;29.50;51.70
5055;DHT22;13829;48.990;8.346;2023-06-14T08:04:43;29.70;51.00
5055;DHT22;13829;48.990;8.346;2023-06-14T08:07:11;29.20;51.40
5055;DHT22;13829;48.990;8.346;2023-06-14T08:09:37;28.40;51.70
5055;DHT22;13829;48.990;8.346;2023-06-14T08:12:05;28.40;52.20
5055;DHT22;13829;48.990;8.346;2023-06-14T08:14:36;28.00;51.80
5055;DHT22;13829;48.990;8.346;2023-06-14T08:17:03;28.00;52.60
5055;DHT22;13829;48.990;8.346;2023-06-14T08:19:30;27.90;52.80
5055;DHT22;13829;48.990;8.346;2023-06-14T08:21:57;28.00;51.70
5055;DHT22;13829;48.990;8.346;2023-06-14T08:24:25;27.90;52.30
5055;DHT22;13829;48.990;8.346;2023-06-14T08:26:53;27.60;52.70
5055;DHT22;13829;48.990;8.346;2023-06-14T08:29:20;28.00;51.90
5055;DHT22;13829;48.990;8.346;2023-06-14T08:31:48;28.00;53.00
5055;DHT22;13829;48.990;8.346;2023-06-14T08:34:15;28.40;53.00
5055;DHT22;13829;48.990;8.346;2023-06-14T08:36:42;29.10;53.50
5055;DHT22;13829;48.990;8.346;2023-06-14T08:39:09;28.90;51.60
5055;DHT22;13829;48.990;8.346;2023-06-14T08:41:36;28.60;51.70
5055;DHT22;13829;48.990;8.346;2023-06-14T08:44:03;28.20;52.70
5055;DHT22;13829;48.990;8.346;2023-06-14T08:46:33;27.90;52.30
5055;DHT22;13829;48.990;8.346;2023-06-14T08:49:02;27.90;53.40
5055;DHT22;13829;48.990;8.346;2023-06-14T08:51:31;27.70;52.10
5055;DHT22;13829;48.990;8.346;2023-06-14T08:54:00;27.90;52.10
5055;DHT22;13829;48.990;8.346;2023-06-14T08:56:29;27.80;52.80
5055;DHT22;13829;48.990;8.346;2023-06-14T08:59:00;27.50;52.80
5055;DHT22;13829;48.990;8.346;2023-06-14T09:01:28;27.40;53.40
5055;DHT22;13829;48.990;8.346;2023-06-14T09:03:56;27.30;52.60
5055;DHT22;13829;48.990;8.346;2023-06-14T09:06:25;27.20;52.90
5055;DHT22;13829;48.990;8.346;2023-06-14T09:08:54;26.90;53.40
5055;DHT22;13829;48.990;8.346;2023-06-14T09:11:23;27.10;53.90
5055;DHT22;13829;48.990;8.346;2023-06-14T09:13:52;27.50;55.80
5055;DHT22;13829;48.990;8.346;2023-06-14T09:16:19;27.80;55.00
5055;DHT22;13829;48.990;8.346;2023-06-14T09:18:47;28.00;55.00
5055;DHT22;13829;48.990;8.346;2023-06-14T09:21:14;27.80;52.70
5055;DHT22;13829;48.990;8.346;2023-06-14T09:23:45;27.50;53.30
5055;DHT22;13829;48.990;8.346;2023-06-14T09:26:14;27.70;52.90
5055;DHT22;13829;48.990;8.346;2023-06-14T09:28:42;27.50;52.90
5055;DHT22;13829;48.990;8.346;2023-06-14T09:31:11;27.20;53.50
5055;DHT22;13829;48.990;8.346;2023-06-14T09:33:38;26.90;52.80
5055;DHT22;13829;48.990;8.346;2023-06-14T09:36:15;27.00;52.70
5055;DHT22;13829;48.990;8.346;2023-06-14T09:38:51;26.70;53.10
5055;DHT22;13829;48.990;8.346;2023-06-14T09:41:19;26.60;53.60
5055;DHT22;13829;48.990;8.346;2023-06-14T09:43:47;26.90;53.20
5055;DHT22;13829;48.990;8.346;2023-06-14T09:46:15;27.00;54.00
5055;DHT22;13829;48.990;8.346;2023-06-14T09:48:42;27.00;53.10
5055;DHT22;13829;48.990;8.346;2023-06-14T09:51:10;27.00;53.10
5055;DHT22;13829;48.990;8.346;2023-06-14T09:53:41;26.80;52.50
5055;DHT22;13829;48.990;8.346;2023-06-14T09:56:12;26.40;53.20
5055;DHT22;13829;48.990;8.346;2023-06-14T09:58:40;26.20;53.20
5055;DHT22;13829;48.990;8.346;2023-06-14T10:01:08;25.90;54.80
5055;DHT22;13829;48.990;8.346;2023-06-14T10:03:39;26.00;55.40
5055;DHT22;13829;48.990;8.346;2023-06-14T10:06:08;26.20;55.70
5055;DHT22;13829;48.990;8.346;2023-06-14T10:08:36;26.30;55.60
5055;DHT22;13829;48.990;8.346;2023-06-14T10:11:06;26.20;53.50
5055;DHT22;13829;48.990;8.346;2023-06-14T10:13:35;25.80;54.10
5055;DHT22;13829;48.990;8.346;2023-06-14T10:16:09;25.60;54.50
5055;DHT22;13829;48.990;8.346;2023-06-14T10:18:45;25.60;54.70
5055;DHT22;13829;48.990;8.346;2023-06-14T10:21:21;25.40;54.00
5055;DHT22;13829;48.990;8.346;2023-06-14T10:23:55;25.50;55.30
5055;DHT22;13829;48.990;8.346;2023-06-14T10:26:27;25.60;54.50
5055;DHT22;13829;48.990;8.346;2023-06-14T10:28:59;25.60;56.10
5055;DHT22;13829;48.990;8.346;2023-06-14T10:31:41;25.70;54.50
5055;DHT22;13829;48.990;8.346;2023-06-14T10:34:10;25.50;53.40
5055;DHT22;13829;48.990;8.346;2023-06-14T10:36:41;25.20;53.50
5055;DHT22;13829;48.990;8.346;2023-06-14T10:39:14;25.40;55.00
5055;DHT22;13829;48.990;8.346;2023-06-14T10:41:50;25.20;54.20
5055;DHT22;13829;48.990;8.346;2023-06-14T10:44:40;25.10;53.30
5055;DHT22;13829;48.990;8.346;2023-06-14T10:47:23;24.90;55.30
5055;DHT22;13829;48.990;8.346;2023-06-14T10:49:53;24.90;53.80
5055;DHT22;13829;48.990;8.346;2023-06-14T10:52:25;25.00;53.10
5055;DHT22;13829;48.990;8.346;2023-06-14T10:55:08;25.20;52.90
5055;DHT22;13829;48.990;8.346;2023-06-14T10:57:38;25.20;53.80
5055;DHT22;13829;48.990;8.346;2023-06-14T11:00:09;25.40;55.00
5055;DHT22;13829;48.990;8.346;2023-06-14T11:03:36;25.50;52.90
5055;DHT22;13829;48.990;8.346;2023-06-14T11:06:15;25.60;52.30
5055;DHT22;13829;48.990;8.346;2023-06-14T11:09:10;25.80;53.60
5055;DHT22;13829;48.990;8.346;2023-06-14T11:11:54;25.90;52.60
5055;DHT22;13829;48.990;8.346;2023-06-14T11:14:22;25.70;51.80
5055;DHT22;13829;48.990;8.346;2023-06-14T11:16:51;26.00;54.20
5055;DHT22;13829;48.990;8.346;2023-06-14T11:19:18;26.10;53.90
5055;DHT22;13829;48.990;8.346;2023-06-14T11:21:47;26.30;52.50
5055;DHT22;13829;48.990;8.346;2023-06-14T11:24:14;26.30;52.90
5055;DHT22;13829;48.990;8.346;2023-06-14T11:26:41;26.30;52.20
5055;DHT22;13829;48.990;8.346;2023-06-14T11:29:08;26.10;53.80
5055;DHT22;13829;48.990;8.346;2023-06-14T11:31:35;26.00;53.70
5055;DHT22;13829;48.990;8.346;2023-06-14T11:34:04;25.90;54.30
5055;DHT22;13829;48.990;8.346;2023-06-14T11:36:33;25.70;53.90
5055;DHT22;13829;48.990;8.346;2023-06-14T11:39:01;25.70;54.40
5055;DHT22;13829;48.990;8.346;2023-06-14T11:41:36;25.70;53.90
5055;DHT22;13829;48.990;8.346;2023-06-14T11:44:05;25.60;53.80
5055;DHT22;13829;48.990;8.346;2023-06-14T11:46:33;25.50;57.00
5055;DHT22;13829;48.990;8.346;2023-06-14T11:49:01;25.70;55.80
5055;DHT22;13829;48.990;8.346;2023-06-14T11:51:31;25.70;54.10
5055;DHT22;13829;48.990;8.346;2023-06-14T11:53:59;25.60;54.40
5055;DHT22;13829;48.990;8.346;2023-06-14T11:56:26;25.60;54.00
5055;DHT22;13829;48.990;8.346;2023-06-14T11:58:53;25.40;53.60
5055;DHT22;13829;48.990;8.346;2023-06-14T12:01:22;25.30;54.20
5055;DHT22;13829;48.990;8.346;2023-06-14T12:03:52;25.20;54.10
5055;DHT22;13829;48.990;8.346;2023-06-14T12:06:26;25.40;55.80
5055;DHT22;13829;48.990;8.346;2023-06-14T12:09:02;25.70;57.50
5055;DHT22;13829;48.990;8.346;2023-06-14T12:11:33;25.90;54.40
5055;DHT22;13829;48.990;8.346;2023-06-14T12:14:03;26.20;53.80
5055;DHT22;13829;48.990;8.346;2023-06-14T12:16:32;26.20;53.30
5055;DHT22;13829;48.990;8.346;2023-06-14T12:19:01;26.20;53.20
5055;DHT22;13829;48.990;8.346;2023-06-14T12:21:37;25.90;52.90
5055;DHT22;13829;48.990;8.346;2023-06-14T12:24:07;25.60;53.40
5055;DHT22;13829;48.990;8.346;2023-06-14T12:26:38;25.50;53.40
5055;DHT22;13829;48.990;8.346;2023-06-14T12:29:06;25.40;55.20
5055;DHT22;13829;48.990;8.346;2023-06-14T12:31:34;25.40;56.10
5055;DHT22;13829;48.990;8.346;2023-06-14T12:34:01;25.40;54.50
5055;DHT22;13829;48.990;8.346;2023-06-14T12:36:27;25.50;53.60
5055;DHT22;13829;48.990;8.346;2023-06-14T12:38:55;25.60;53.60
5055;DHT22;13829;48.990;8.346;2023-06-14T12:41:23;25.50;52.90
5055;DHT22;13829;48.990;8.346;2023-06-14T12:43:52;25.50;52.30
5055;DHT22;13829;48.990;8.346;2023-06-14T12:46:19;25.50;52.80
5055;DHT22;13829;48.990;8.346;2023-06-14T12:48:46;25.60;53.40
5055;DHT22;13829;48.990;8.346;2023-06-14T12:51:13;25.90;53.40
5055;DHT22;13829;48.990;8.346;2023-06-14T12:53:40;26.20;52.10
5055;DHT22;13829;48.990;8.346;2023-06-14T12:56:07;26.20;51.70
5055;DHT22;13829;48.990;8.346;2023-06-14T12:58:35;26.00;52.50
5055;DHT22;13829;48.990;8.346;2023-06-14T13:01:02;25.90;51.80
5055;DHT22;13829;48.990;8.346;2023-06-14T13:03:29;25.90;53.90
5055;DHT22;13829;48.990;8.346;2023-06-14T13:05:56;26.10;52.50
5055;DHT22;13829;48.990;8.346;2023-06-14T13:08:23;26.20;50.90
5055;DHT22;13829;48.990;8.346;2023-06-14T13:10:50;26.10;52.10
5055;DHT22;13829;48.990;8.346;2023-06-14T13:13:17;26.20;52.10
5055;DHT22;13829;48.990;8.346;2023-06-14T13:15:45;26.40;53.70
5055;DHT22;13829;48.990;8.346;2023-06-14T13:18:12;26.30;52.10
5055;DHT22;13829;48.990;8.346;2023-06-14T13:20:39;26.10;53.00
5055;DHT22;13829;48.990;8.346;2023-06-14T13:23:07;26.00;54.10
5055;DHT22;13829;48.990;8.346;2023-06-14T13:25:36;25.90;54.20
5055;DHT22;13829;48.990;8.346;2023-06-14T13:28:04;25.90;54.20
5055;DHT22;13829;48.990;8.346;2023-06-14T13:30:32;25.50;52.70
5055;DHT22;13829;48.990;8.346;2023-06-14T13:33:01;25.30;52.80
5055;DHT22;13829;48.990;8.346;2023-06-14T13:35:29;25.30;53.10
5055;DHT22;13829;48.990;8.346;2023-06-14T13:37:56;25.20;52.90
5055;DHT22;13829;48.990;8.346;2023-06-14T13:40:23;25.10;53.40
5055;DHT22;13829;48.990;8.346;2023-06-14T13:42:50;24.90;53.80
5055;DHT22;13829;48.990;8.346;2023-06-14T13:45:16;24.80;53.10
5055;DHT22;13829;48.990;8.346;2023-06-14T13:47:43;24.70;52.90
5055;DHT22;13829;48.990;8.346;2023-06-14T13:50:15;24.80;53.10
5055;DHT22;13829;48.990;8.346;2023-06-14T13:52:42;24.70;52.50
5055;DHT22;13829;48.990;8.346;2023-06-14T13:55:09;24.50;52.20
5055;DHT22;13829;48.990;8.346;2023-06-14T13:57:36;24.80;52.70
5055;DHT22;13829;48.990;8.346;2023-06-14T14:00:04;24.80;53.30
5055;DHT22;13829;48.990;8.346;2023-06-14T14:02:31;25.00;53.10
5055;DHT22;13829;48.990;8.346;2023-06-14T14:04:58;25.10;52.80
5055;DHT22;13829;48.990;8.346;2023-06-14T14:07:27;25.10;53.20
5055;DHT22;13829;48.990;8.346;2023-06-14T14:09:55;25.10;52.70
5055;DHT22;13829;48.990;8.346;2023-06-14T14:12:23;25.00;52.80
5055;DHT22;13829;48.990;8.346;2023-06-14T14:14:50;25.00;52.50
5055;DHT22;13829;48.990;8.346;2023-06-14T14:17:17;25.20;53.20
5055;DHT22;13829;48.990;8.346;2023-06-14T14:19:44;25.20;52.50
5055;DHT22;13829;48.990;8.346;2023-06-14T14:22:11;25.10;53.60
5055;DHT22;13829;48.990;8.346;2023-06-14T14:24:40;25.10;52.90
5055;DHT22;13829;48.990;8.346;2023-06-14T14:27:07;24.90;52.60
5055;DHT22;13829;48.990;8.346;2023-06-14T14:29:34;25.00;52.90
5055;DHT22;13829;48.990;8.346;2023-06-14T14:32:01;25.00;52.90
5055;DHT22;13829;48.990;8.346;2023-06-14T14:34:28;25.00;52.70
5055;DHT22;13829;48.990;8.346;2023-06-14T14:36:54;24.90;52.60
5055;DHT22;13829;48.990;8.346;2023-06-14T14:39:22;24.90;52.80
5055;DHT22;13829;48.990;8.346;2023-06-14T14:41:50;25.00;52.20
5055;DHT22;13829;48.990;8.346;2023-06-14T14:44:17;25.00;52.90
5055;DHT22;13829;48.990;8.346;2023-06-14T14:46:44;25.10;53.50
5055;DHT22;13829;48.990;8.346;2023-06-14T14:49:11;25.30;52.80
5055;DHT22;13829;48.990;8.346;2023-06-14T14:51:38;25.40;51.40
5055;DHT22;13829;48.990;8.346;2023-06-14T14:54:05;25.20;51.20
5055;DHT22;13829;48.990;8.346;2023-06-14T14:56:33;25.20;51.40
5055;DHT22;13829;48.990;8.346;2023-06-14T14:59:01;25.20;51.50
5055;DHT22;13829;48.990;8.346;2023-06-14T15:01:29;25.30;53.90
5055;DHT22;13829;48.990;8.346;2023-06-14T15:03:56;25.40;50.70
5055;DHT22;13829;48.990;8.346;2023-06-14T15:06:23;25.50;50.40
5055;DHT22;13829;48.990;8.346;2023-06-14T15:08:50;25.50;51.20
5055;DHT22;13829;48.990;8.346;2023-06-14T15:11:17;25.60;50.70
5055;DHT22;13829;48.990;8.346;2023-06-14T15:13:44;25.70;51.20
5055;DHT22;13829;48.990;8.346;2023-06-14T15:16:12;25.70;50.10
5055;DHT22;13829;48.990;8.346;2023-06-14T15:18:39;25.80;50.60
5055;DHT22;13829;48.990;8.346;2023-06-14T15:21:06;25.50;50.50
5055;DHT22;13829;48.990;8.346;2023-06-14T15:23:33;25.20;50.70
5055;DHT22;13829;48.990;8.346;2023-06-14T15:26:00;25.40;51.50
5055;DHT22;13829;48.990;8.346;2023-06-14T15:28:27;25.50;50.90
5055;DHT22;13829;48.990;8.346;2023-06-14T15:30:54;25.40;50.30
5055;DHT22;13829;48.990;8.346;2023-06-14T15:33:23;25.40;50.70
5055;DHT22;13829;48.990;8.346;2023-06-14T15:35:50;25.30;50.60
5055;DHT22;13829;48.990;8.346;2023-06-14T15:38:18;25.40;51.80
5055;DHT22;13829;48.990;8.346;2023-06-14T15:40:47;25.40;50.40
5055;DHT22;13829;48.990;8.346;2023-06-14T15:43:14;25.20;50.40
5055;DHT22;13829;48.990;8.346;2023-06-14T15:45:41;25.40;53.00
5055;DHT22;13829;48.990;8.346;2023-06-14T15:48:09;25.40;50.90
5055;DHT22;13829;48.990;8.346;2023-06-14T15:50:37;25.60;51.90
5055;DHT22;13829;48.990;8.346;2023-06-14T15:53:04;25.60;51.30